sensor_id;sensor_type;location;lat;lon;timestamp;pressure;altitude;pressure_sealevel;temperature;humidity
21109;BME280;10712;52.944;9.098;2022-09-17T00:01:05;100528.75;;;19.58;59.91
21109;BME280;10712;52.944;9.098;2022-09-17T00:03:32;100529.16;;;19.81;59.17
21109;BME280;10712;52.944;9.098;2022-09-17T00:06:11;100530.47;;;20.13;58.15
21109;BME280;10712;52.944;9.098;2022-09-17T00:08:39;100530.47;;;19.95;58.68
21109;BME280;10712;52.944;9.098;2022-09-17T00:11:22;100529.69;;;20.20;57.98
21109;BME280;10712;52.944;9.098;2022-09-17T00:13:50;100529.06;;;20.26;57.35
21109;BME280;10712;52.944;9.098;2022-09-17T00:16:32;100533.97;;;20.05;57.80
21109;BME280;10712;52.944;9.098;2022-09-17T00:18:59;100545.28;;;19.55;59.33
21109;BME280;10712;52.944;9.098;2022-09-17T00:21:26;100538.91;;;19.74;58.80
21109;BME280;10712;52.944;9.098;2022-09-17T00:23:59;100538.31;;;19.53;59.76
21109;BME280;10712;52.944;9.098;2022-09-17T00:26:27;100545.78;;;19.69;58.78
21109;BME280;10712;52.944;9.098;2022-09-17T00:28:56;100543.63;;;19.90;58.36
21109;BME280;10712;52.944;9.098;2022-09-17T00:31:23;100546.72;;;19.95;58.11
21109;BME280;10712;52.944;9.098;2022-09-17T00:33:50;100552.19;;;20.03;57.74
21109;BME280;10712;52.944;9.098;2022-09-17T00:36:16;100541.47;;;20.11;57.40
21109;BME280;10712;52.944;9.098;2022-09-17T00:38:42;100543.16;;;19.77;58.46
21109;BME280;10712;52.944;9.098;2022-09-17T00:41:08;100545.78;;;19.69;58.38
21109;BME280;10712;52.944;9.098;2022-09-17T00:46:42;100541.75;;;20.08;56.97
21109;BME280;10712;52.944;9.098;2022-09-17T00:49:24;100557.34;;;19.61;57.70
21109;BME280;10712;52.944;9.098;2022-09-17T00:52:03;100538.91;;;19.74;57.70
21109;BME280;10712;52.944;9.098;2022-09-17T00:54:32;100541.59;;;19.92;57.52
21109;BME280;10712;52.944;9.098;2022-09-17T00:56:59;100534.50;;;19.91;57.40
21109;BME280;10712;52.944;9.098;2022-09-17T00:59:25;100541.84;;;19.81;57.40
21109;BME280;10712;52.944;9.098;2022-09-17T01:01:51;100553.13;;;19.76;57.58
21109;BME280;10712;52.944;9.098;2022-09-17T01:04:24;100549.72;;;19.74;57.51
21109;BME280;10712;52.944;9.098;2022-09-17T01:18:19;100558.94;;;19.44;57.73
21109;BME280;10712;52.944;9.098;2022-09-17T01:33:14;100581.75;;;19.42;57.41
21109;BME280;10712;52.944;9.098;2022-09-17T01:39:13;100578.31;;;19.77;56.16
21109;BME280;10712;52.944;9.098;2022-09-17T01:41:55;100577.19;;;19.42;57.30
21109;BME280;10712;52.944;9.098;2022-09-17T01:44:49;100583.00;;;19.75;56.10
21109;BME280;10712;52.944;9.098;2022-09-17T01:50:03;100589.00;;;19.41;57.30
21109;BME280;10712;52.944;9.098;2022-09-17T01:52:35;100588.31;;;19.66;56.49
21109;BME280;10712;52.944;9.098;2022-09-17T01:55:10;100588.28;;;19.49;56.94
21109;BME280;10712;52.944;9.098;2022-09-17T01:57:53;100589.13;;;19.49;56.50
21109;BME280;10712;52.944;9.098;2022-09-17T02:00:21;100593.97;;;19.36;57.00
21109;BME280;10712;52.944;9.098;2022-09-17T02:05:44;100596.63;;;19.55;56.07
21109;BME280;10712;52.944;9.098;2022-09-17T02:08:26;100596.88;;;19.25;57.20
21109;BME280;10712;52.944;9.098;2022-09-17T02:11:07;100593.94;;;19.55;56.41
21109;BME280;10712;52.944;9.098;2022-09-17T02:16:32;100596.28;;;19.31;57.07
21109;BME280;10712;52.944;9.098;2022-09-17T02:19:09;100596.66;;;19.36;56.79
21109;BME280;10712;52.944;9.098;2022-09-17T02:21:52;100601.38;;;19.07;57.46
21109;BME280;10712;52.944;9.098;2022-09-17T02:24:36;100599.75;;;19.51;56.46
21109;BME280;10712;52.944;9.098;2022-09-17T02:27:22;100605.94;;;19.71;55.64
21109;BME280;10712;52.944;9.098;2022-09-17T02:29:51;100607.88;;;18.58;58.82
21109;BME280;10712;52.944;9.098;2022-09-17T02:32:17;100602.16;;;18.80;58.62
21109;BME280;10712;52.944;9.098;2022-09-17T02:34:42;100607.56;;;18.70;58.93
21109;BME280;10712;52.944;9.098;2022-09-17T02:37:09;100612.94;;;17.93;61.02
21109;BME280;10712;52.944;9.098;2022-09-17T02:39:35;100612.25;;;18.10;60.87
21109;BME280;10712;52.944;9.098;2022-09-17T02:42:27;100599.59;;;18.78;58.99
21109;BME280;10712;52.944;9.098;2022-09-17T02:48:08;100602.44;;;18.67;58.76
21109;BME280;10712;52.944;9.098;2022-09-17T02:54:12;100605.97;;;19.24;56.51
21109;BME280;10712;52.944;9.098;2022-09-17T02:57:21;100606.19;;;19.40;56.24
21109;BME280;10712;52.944;9.098;2022-09-17T03:00:08;100609.63;;;19.42;55.78
21109;BME280;10712;52.944;9.098;2022-09-17T03:02:54;100613.84;;;19.45;56.05
21109;BME280;10712;52.944;9.098;2022-09-17T03:05:24;100621.56;;;19.49;55.97
21109;BME280;10712;52.944;9.098;2022-09-17T03:07:50;100626.63;;;19.52;55.71
21109;BME280;10712;52.944;9.098;2022-09-17T03:10:17;100622.66;;;19.56;55.83
21109;BME280;10712;52.944;9.098;2022-09-17T03:12:44;100628.63;;;19.50;55.88
21109;BME280;10712;52.944;9.098;2022-09-17T03:15:10;100626.03;;;19.58;55.75
21109;BME280;10712;52.944;9.098;2022-09-17T03:17:36;100621.44;;;19.32;56.64
21109;BME280;10712;52.944;9.098;2022-09-17T03:20:02;100631.88;;;19.17;57.20
21109;BME280;10712;52.944;9.098;2022-09-17T03:22:28;100624.09;;;19.14;57.10
21109;BME280;10712;52.944;9.098;2022-09-17T03:24:54;100624.97;;;19.42;56.22
21109;BME280;10712;52.944;9.098;2022-09-17T03:27:20;100620.47;;;19.23;56.82
21109;BME280;10712;52.944;9.098;2022-09-17T03:29:46;100623.16;;;19.23;56.81
21109;BME280;10712;52.944;9.098;2022-09-17T03:32:12;100615.97;;;19.14;56.93
21109;BME280;10712;52.944;9.098;2022-09-17T03:34:38;100616.66;;;19.16;57.16
21109;BME280;10712;52.944;9.098;2022-09-17T03:37:04;100607.16;;;19.12;57.56
21109;BME280;10712;52.944;9.098;2022-09-17T03:39:30;100616.66;;;18.69;58.56
21109;BME280;10712;52.944;9.098;2022-09-17T03:41:55;100613.63;;;18.92;58.29
21109;BME280;10712;52.944;9.098;2022-09-17T03:44:21;100614.28;;;19.13;57.66
21109;BME280;10712;52.944;9.098;2022-09-17T03:46:49;100613.81;;;18.80;58.10
21109;BME280;10712;52.944;9.098;2022-09-17T03:49:15;100618.41;;;19.44;56.37
21109;BME280;10712;52.944;9.098;2022-09-17T03:51:41;100613.84;;;19.45;56.26
21109;BME280;10712;52.944;9.098;2022-09-17T03:54:07;100611.28;;;19.43;56.25
21109;BME280;10712;52.944;9.098;2022-09-17T03:56:33;100613.59;;;19.38;56.68
21109;BME280;10712;52.944;9.098;2022-09-17T03:59:00;100616.72;;;18.97;57.64
21109;BME280;10712;52.944;9.098;2022-09-17T04:01:27;100622.50;;;19.21;56.67
21109;BME280;10712;52.944;9.098;2022-09-17T04:03:53;100621.69;;;19.38;56.30
21109;BME280;10712;52.944;9.098;2022-09-17T04:06:20;100615.66;;;19.17;56.81
21109;BME280;10712;52.944;9.098;2022-09-17T04:08:45;100623.88;;;19.25;56.46
21109;BME280;10712;52.944;9.098;2022-09-17T04:11:12;100626.38;;;19.36;56.11
21109;BME280;10712;52.944;9.098;2022-09-17T04:13:37;100639.16;;;19.53;55.40
21109;BME280;10712;52.944;9.098;2022-09-17T04:16:04;100634.91;;;19.41;55.57
21109;BME280;10712;52.944;9.098;2022-09-17T04:18:30;100632.22;;;19.41;55.39
21109;BME280;10712;52.944;9.098;2022-09-17T04:20:56;100634.09;;;19.31;55.76
21109;BME280;10712;52.944;9.098;2022-09-17T04:23:22;100647.91;;;19.28;55.90
21109;BME280;10712;52.944;9.098;2022-09-17T04:25:48;100645.88;;;19.40;55.51
21109;BME280;10712;52.944;9.098;2022-09-17T04:28:14;100646.00;;;19.48;55.31
21109;BME280;10712;52.944;9.098;2022-09-17T04:30:40;100642.00;;;19.52;54.83
21109;BME280;10712;52.944;9.098;2022-09-17T04:33:10;100642.31;;;19.39;55.10
21109;BME280;10712;52.944;9.098;2022-09-17T04:35:39;100645.16;;;19.38;55.25
21109;BME280;10712;52.944;9.098;2022-09-17T04:38:05;100643.78;;;19.24;55.45
21109;BME280;10712;52.944;9.098;2022-09-17T04:40:31;100655.28;;;18.79;56.15
21109;BME280;10712;52.944;9.098;2022-09-17T04:42:58;100657.75;;;19.19;55.10
21109;BME280;10712;52.944;9.098;2022-09-17T04:45:29;100656.53;;;19.41;54.60
21109;BME280;10712;52.944;9.098;2022-09-17T04:47:57;100650.56;;;19.38;54.65
21109;BME280;10712;52.944;9.098;2022-09-17T04:50:23;100654.97;;;19.48;54.31
21109;BME280;10712;52.944;9.098;2022-09-17T04:52:49;100661.38;;;19.47;54.23
21109;BME280;10712;52.944;9.098;2022-09-17T04:55:15;100656.09;;;19.36;54.50
21109;BME280;10712;52.944;9.098;2022-09-17T04:57:49;100667.78;;;19.46;53.96
21109;BME280;10712;52.944;9.098;2022-09-17T05:00:16;100665.06;;;19.46;53.98
21109;BME280;10712;52.944;9.098;2022-09-17T05:02:49;100660.50;;;19.37;54.11
21109;BME280;10712;52.944;9.098;2022-09-17T05:05:17;100664.53;;;19.23;54.21
21109;BME280;10712;52.944;9.098;2022-09-17T05:07:43;100670.47;;;19.37;53.91
21109;BME280;10712;52.944;9.098;2022-09-17T05:10:12;100671.03;;;19.40;53.77
21109;BME280;10712;52.944;9.098;2022-09-17T05:12:39;100670.31;;;19.38;53.95
21109;BME280;10712;52.944;9.098;2022-09-17T05:15:06;100669.31;;;19.39;53.89
21109;BME280;10712;52.944;9.098;2022-09-17T05:17:32;100674.72;;;19.39;53.86
21109;BME280;10712;52.944;9.098;2022-09-17T05:19:58;100674.44;;;19.42;53.70
21109;BME280;10712;52.944;9.098;2022-09-17T05:22:24;100680.84;;;19.41;53.73
21109;BME280;10712;52.944;9.098;2022-09-17T05:24:49;100675.91;;;19.27;54.41
21109;BME280;10712;52.944;9.098;2022-09-17T05:27:15;100671.91;;;19.31;54.23
21109;BME280;10712;52.944;9.098;2022-09-17T05:29:41;100677.03;;;19.34;54.29
21109;BME280;10712;52.944;9.098;2022-09-17T05:32:07;100687.84;;;19.34;54.37
21109;BME280;10712;52.944;9.098;2022-09-17T05:34:32;100684.41;;;19.42;54.38
21109;BME280;10712;52.944;9.098;2022-09-17T05:36:58;100683.63;;;19.12;54.78
21109;BME280;10712;52.944;9.098;2022-09-17T05:39:24;100694.94;;;19.35;54.34
21109;BME280;10712;52.944;9.098;2022-09-17T05:41:54;100687.53;;;19.37;54.56
21109;BME280;10712;52.944;9.098;2022-09-17T05:44:20;100689.53;;;19.35;54.60
21109;BME280;10712;52.944;9.098;2022-09-17T05:46:47;100683.56;;;19.41;54.67
21109;BME280;10712;52.944;9.098;2022-09-17T05:49:13;100685.69;;;19.47;54.14
21109;BME280;10712;52.944;9.098;2022-09-17T05:51:42;100690.69;;;19.23;54.82
21109;BME280;10712;52.944;9.098;2022-09-17T05:54:08;100702.56;;;18.83;55.76
21109;BME280;10712;52.944;9.098;2022-09-17T05:56:34;100693.47;;;18.94;55.67
21109;BME280;10712;52.944;9.098;2022-09-17T05:59:00;100696.41;;;19.20;54.94
21109;BME280;10712;52.944;9.098;2022-09-17T06:01:26;100687.84;;;19.34;54.47
21109;BME280;10712;52.944;9.098;2022-09-17T06:03:52;100688.00;;;19.23;54.62
21109;BME280;10712;52.944;9.098;2022-09-17T06:06:18;100687.06;;;19.05;54.94
21109;BME280;10712;52.944;9.098;2022-09-17T06:08:44;100688.91;;;19.04;54.79
21109;BME280;10712;52.944;9.098;2022-09-17T06:11:10;100691.06;;;18.53;56.22
21109;BME280;10712;52.944;9.098;2022-09-17T06:13:36;100702.84;;;17.92;58.35
21109;BME280;10712;52.944;9.098;2022-09-17T06:16:02;100697.53;;;18.21;57.64
21109;BME280;10712;52.944;9.098;2022-09-17T06:18:30;100692.41;;;19.24;54.39
21109;BME280;10712;52.944;9.098;2022-09-17T06:21:01;100696.03;;;19.52;53.13
21109;BME280;10712;52.944;9.098;2022-09-17T06:23:32;100693.38;;;19.42;52.93
21109;BME280;10712;52.944;9.098;2022-09-17T06:26:03;100697.75;;;19.43;53.09
21109;BME280;10712;52.944;9.098;2022-09-17T06:28:31;100701.22;;;19.26;53.21
21109;BME280;10712;52.944;9.098;2022-09-17T06:31:05;100711.97;;;19.45;52.66
21109;BME280;10712;52.944;9.098;2022-09-17T06:33:32;100706.88;;;19.42;52.94
21109;BME280;10712;52.944;9.098;2022-09-17T06:36:05;100709.13;;;19.56;52.33
21109;BME280;10712;52.944;9.098;2022-09-17T06:38:34;100710.91;;;19.19;53.30
21109;BME280;10712;52.944;9.098;2022-09-17T06:41:00;100706.53;;;18.60;54.92
21109;BME280;10712;52.944;9.098;2022-09-17T06:43:27;100714.63;;;18.99;53.91
21109;BME280;10712;52.944;9.098;2022-09-17T06:45:59;100706.63;;;19.26;53.11
21109;BME280;10712;52.944;9.098;2022-09-17T06:48:27;100703.34;;;19.22;53.11
21109;BME280;10712;52.944;9.098;2022-09-17T06:50:54;100709.03;;;19.29;53.21
21109;BME280;10712;52.944;9.098;2022-09-17T06:53:21;100712.81;;;19.46;52.58
21109;BME280;10712;52.944;9.098;2022-09-17T06:55:48;100708.63;;;19.24;52.74
21109;BME280;10712;52.944;9.098;2022-09-17T06:58:14;100702.41;;;19.04;53.14
21109;BME280;10712;52.944;9.098;2022-09-17T07:00:40;100704.56;;;19.01;53.05
21109;BME280;10712;52.944;9.098;2022-09-17T07:03:06;100707.84;;;18.95;53.40
21109;BME280;10712;52.944;9.098;2022-09-17T07:05:32;100700.91;;;19.48;51.96
21109;BME280;10712;52.944;9.098;2022-09-17T07:08:01;100704.25;;;19.04;53.04
21109;BME280;10712;52.944;9.098;2022-09-17T07:10:30;100705.03;;;19.43;52.17
21109;BME280;10712;52.944;9.098;2022-09-17T07:12:56;100707.94;;;19.69;51.23
21109;BME280;10712;52.944;9.098;2022-09-17T07:15:23;100705.03;;;19.43;51.58
21109;BME280;10712;52.944;9.098;2022-09-17T07:17:49;100709.34;;;19.73;51.11
21109;BME280;10712;52.944;9.098;2022-09-17T07:20:15;100708.78;;;19.69;50.96
21109;BME280;10712;52.944;9.098;2022-09-17T07:22:41;100706.22;;;19.67;50.99
21109;BME280;10712;52.944;9.098;2022-09-17T07:25:08;100702.75;;;19.38;51.17
21109;BME280;10712;52.944;9.098;2022-09-17T07:27:34;100701.72;;;19.58;50.71
21109;BME280;10712;52.944;9.098;2022-09-17T07:30:00;100701.28;;;19.07;52.33
21109;BME280;10712;52.944;9.098;2022-09-17T07:32:29;100707.16;;;19.49;51.60
21109;BME280;10712;52.944;9.098;2022-09-17T07:34:55;100706.63;;;19.73;51.09
21109;BME280;10712;52.944;9.098;2022-09-17T07:37:21;100715.16;;;20.05;50.18
21109;BME280;10712;52.944;9.098;2022-09-17T07:39:47;100703.63;;;20.03;50.00
21109;BME280;10712;52.944;9.098;2022-09-17T07:42:13;100710.81;;;19.57;50.58
21109;BME280;10712;52.944;9.098;2022-09-17T07:44:39;100710.53;;;19.60;50.49
21109;BME280;10712;52.944;9.098;2022-09-17T07:47:05;100716.78;;;19.61;50.63
21109;BME280;10712;52.944;9.098;2022-09-17T07:49:30;100721.56;;;20.04;49.88
21109;BME280;10712;52.944;9.098;2022-09-17T07:51:56;100727.84;;;19.67;50.66
21109;BME280;10712;52.944;9.098;2022-09-17T07:54:22;100716.44;;;19.74;50.89
21109;BME280;10712;52.944;9.098;2022-09-17T07:56:48;100713.81;;;20.19;49.65
21109;BME280;10712;52.944;9.098;2022-09-17T07:59:14;100719.56;;;20.33;49.88
21109;BME280;10712;52.944;9.098;2022-09-17T08:01:40;100716.28;;;20.30;49.88
21109;BME280;10712;52.944;9.098;2022-09-17T08:04:06;100717.84;;;20.32;49.44
21109;BME280;10712;52.944;9.098;2022-09-17T08:06:36;100715.00;;;20.34;49.33
21109;BME280;10712;52.944;9.098;2022-09-17T08:09:03;100711.53;;;20.14;50.10
21109;BME280;10712;52.944;9.098;2022-09-17T08:11:30;100706.13;;;20.41;49.55
21109;BME280;10712;52.944;9.098;2022-09-17T08:13:56;100696.84;;;20.44;49.57
21109;BME280;10712;52.944;9.098;2022-09-17T08:16:23;100703.72;;;20.38;49.36
21109;BME280;10712;52.944;9.098;2022-09-17T08:18:55;100700.19;;;20.73;48.70
21109;BME280;10712;52.944;9.098;2022-09-17T08:21:22;100693.69;;;20.66;48.93
21109;BME280;10712;52.944;9.098;2022-09-17T08:23:48;100700.19;;;20.73;48.81
21109;BME280;10712;52.944;9.098;2022-09-17T08:26:20;100692.25;;;19.72;51.04
21109;BME280;10712;52.944;9.098;2022-09-17T08:28:54;100692.38;;;19.34;52.79
21109;BME280;10712;52.944;9.098;2022-09-17T08:31:23;100694.34;;;19.78;51.75
21109;BME280;10712;52.944;9.098;2022-09-17T08:33:49;100694.72;;;19.65;51.35
21109;BME280;10712;52.944;9.098;2022-09-17T08:36:18;100687.41;;;19.76;51.16
21109;BME280;10712;52.944;9.098;2022-09-17T08:38:44;100698.34;;;19.84;51.37
21109;BME280;10712;52.944;9.098;2022-09-17T08:41:19;100692.25;;;19.99;51.36
21109;BME280;10712;52.944;9.098;2022-09-17T08:44:10;100687.09;;;19.79;51.61
21109;BME280;10712;52.944;9.098;2022-09-17T08:46:46;100685.31;;;19.97;51.09
21109;BME280;10712;52.944;9.098;2022-09-17T08:55:19;100694.22;;;19.80;50.30
21109;BME280;10712;52.944;9.098;2022-09-17T08:58:19;100694.19;;;19.52;50.73
21109;BME280;10712;52.944;9.098;2022-09-17T09:01:02;100696.72;;;19.63;50.65
21109;BME280;10712;52.944;9.098;2022-09-17T09:07:19;100696.78;;;20.26;49.71
21109;BME280;10712;52.944;9.098;2022-09-17T09:10:09;100702.53;;;20.23;49.73
21109;BME280;10712;52.944;9.098;2022-09-17T09:12:39;100695.63;;;20.38;49.28
21109;BME280;10712;52.944;9.098;2022-09-17T09:18:22;100713.34;;;19.69;50.32
21109;BME280;10712;52.944;9.098;2022-09-17T09:21:07;100716.03;;;20.23;48.39
21109;BME280;10712;52.944;9.098;2022-09-17T09:23:58;100715.00;;;20.34;47.93
21109;BME280;10712;52.944;9.098;2022-09-17T09:32:27;100708.03;;;20.31;49.65
21109;BME280;10712;52.944;9.098;2022-09-17T09:35:15;100705.13;;;20.15;50.70
21109;BME280;10712;52.944;9.098;2022-09-17T09:37:54;100708.38;;;20.46;49.81
21109;BME280;10712;52.944;9.098;2022-09-17T09:40:45;100705.25;;;20.41;50.08
21109;BME280;10712;52.944;9.098;2022-09-17T09:43:21;100708.81;;;20.14;51.08
21109;BME280;10712;52.944;9.098;2022-09-17T09:57:47;100756.97;;;18.88;53.27
21109;BME280;10712;52.944;9.098;2022-09-17T10:00:28;100762.25;;;18.80;53.92
21109;BME280;10712;52.944;9.098;2022-09-17T10:03:03;100757.53;;;18.63;54.86
21109;BME280;10712;52.944;9.098;2022-09-17T10:05:34;100768.13;;;18.36;55.77
21109;BME280;10712;52.944;9.098;2022-09-17T10:08:13;100755.84;;;18.62;55.47
21109;BME280;10712;52.944;9.098;2022-09-17T10:11:03;100765.28;;;18.37;56.15
21109;BME280;10712;52.944;9.098;2022-09-17T10:13:33;100762.38;;;18.69;55.61
21109;BME280;10712;52.944;9.098;2022-09-17T10:16:20;100750.72;;;18.69;56.05
21109;BME280;10712;52.944;9.098;2022-09-17T10:21:34;100746.47;;;18.66;56.76
21109;BME280;10712;52.944;9.098;2022-09-17T10:24:14;100749.03;;;18.58;57.72
21109;BME280;10712;52.944;9.098;2022-09-17T10:26:46;100749.31;;;18.94;56.81
21109;BME280;10712;52.944;9.098;2022-09-17T10:29:18;100748.75;;;19.00;56.73
21109;BME280;10712;52.944;9.098;2022-09-17T10:31:54;100751.88;;;18.85;57.08
21109;BME280;10712;52.944;9.098;2022-09-17T10:34:29;100738.50;;;18.74;57.21
21109;BME280;10712;52.944;9.098;2022-09-17T10:36:56;100740.78;;;18.88;57.11
21109;BME280;10712;52.944;9.098;2022-09-17T10:42:12;100752.16;;;18.63;58.39
21109;BME280;10712;52.944;9.098;2022-09-17T10:44:56;100761.81;;;18.85;57.76
21109;BME280;10712;52.944;9.098;2022-09-17T10:47:36;100761.22;;;19.20;57.00
21109;BME280;10712;52.944;9.098;2022-09-17T10:50:29;100745.41;;;18.48;58.04
21109;BME280;10712;52.944;9.098;2022-09-17T10:53:05;100733.34;;;18.42;57.46
21109;BME280;10712;52.944;9.098;2022-09-17T11:07:02;100709.84;;;18.73;56.49
21109;BME280;10712;52.944;9.098;2022-09-17T11:21:42;100728.41;;;19.05;55.15
21109;BME280;10712;52.944;9.098;2022-09-17T11:27:57;100725.25;;;19.10;55.70
21109;BME280;10712;52.944;9.098;2022-09-17T11:30:23;100716.59;;;19.16;55.46
21109;BME280;10712;52.944;9.098;2022-09-17T11:33:40;100719.03;;;19.00;56.01
21109;BME280;10712;52.944;9.098;2022-09-17T11:39:59;100728.28;;;18.59;57.99
21109;BME280;10712;52.944;9.098;2022-09-17T11:42:20;100715.47;;;19.09;56.23
21109;BME280;10712;52.944;9.098;2022-09-17T11:45:12;100713.06;;;19.06;56.28
21109;BME280;10712;52.944;9.098;2022-09-17T11:47:48;100696.69;;;19.17;56.29
21109;BME280;10712;52.944;9.098;2022-09-17T11:50:36;100714.09;;;18.85;56.99
21109;BME280;10712;52.944;9.098;2022-09-17T11:53:56;100705.22;;;19.22;55.96
21109;BME280;10712;52.944;9.098;2022-09-17T11:56:22;100706.50;;;19.27;55.99
21109;BME280;10712;52.944;9.098;2022-09-17T11:59:34;100727.97;;;19.29;55.92
21109;BME280;10712;52.944;9.098;2022-09-17T12:05:07;100702.53;;;19.22;56.15
21109;BME280;10712;52.944;9.098;2022-09-17T12:10:40;100690.75;;;19.04;56.40
21109;BME280;10712;52.944;9.098;2022-09-17T12:15:49;100680.47;;;19.17;55.37
21109;BME280;10712;52.944;9.098;2022-09-17T12:21:45;100685.13;;;19.34;54.84
21109;BME280;10712;52.944;9.098;2022-09-17T12:24:29;100672.81;;;19.22;55.09
21109;BME280;10712;52.944;9.098;2022-09-17T12:28:00;100659.78;;;18.98;55.73
21109;BME280;10712;52.944;9.098;2022-09-17T12:30:55;100658.28;;;19.23;55.09
21109;BME280;10712;52.944;9.098;2022-09-17T12:33:56;100657.16;;;19.16;55.59
21109;BME280;10712;52.944;9.098;2022-09-17T12:36:36;100659.38;;;18.83;56.96
21109;BME280;10712;52.944;9.098;2022-09-17T12:42:35;100656.19;;;19.17;56.38
21109;BME280;10712;52.944;9.098;2022-09-17T12:54:37;100637.84;;;19.20;56.82
21109;BME280;10712;52.944;9.098;2022-09-17T12:57:47;100638.84;;;19.10;57.80
21109;BME280;10712;52.944;9.098;2022-09-17T13:00:16;100633.63;;;18.99;58.03
21109;BME280;10712;52.944;9.098;2022-09-17T13:03:31;100634.34;;;19.47;56.97
21109;BME280;10712;52.944;9.098;2022-09-17T13:06:24;100621.53;;;19.03;58.29
21109;BME280;10712;52.944;9.098;2022-09-17T13:18:06;100608.94;;;19.67;57.60
21109;BME280;10712;52.944;9.098;2022-09-17T13:21:11;100615.69;;;19.54;57.97
21109;BME280;10712;52.944;9.098;2022-09-17T13:23:45;100606.91;;;19.05;59.17
21109;BME280;10712;52.944;9.098;2022-09-17T13:26:15;100615.63;;;19.91;56.96
21109;BME280;10712;52.944;9.098;2022-09-17T13:28:50;100608.13;;;19.57;57.74
21109;BME280;10712;52.944;9.098;2022-09-17T13:34:00;100609.59;;;19.97;57.02
21109;BME280;10712;52.944;9.098;2022-09-17T13:36:48;100609.81;;;19.58;58.68
21109;BME280;10712;52.944;9.098;2022-09-17T13:39:38;100598.13;;;19.31;59.76
21109;BME280;10712;52.944;9.098;2022-09-17T13:42:18;100610.84;;;20.20;57.33
21109;BME280;10712;52.944;9.098;2022-09-17T13:44:52;100617.53;;;19.81;58.43
21109;BME280;10712;52.944;9.098;2022-09-17T13:47:32;100617.31;;;19.92;57.47
21109;BME280;10712;52.944;9.098;2022-09-17T13:50:08;100622.78;;;19.82;57.52
21109;BME280;10712;52.944;9.098;2022-09-17T13:52:44;100628.84;;;19.66;57.35
21109;BME280;10712;52.944;9.098;2022-09-17T14:01:02;100626.97;;;19.49;57.27
21109;BME280;10712;52.944;9.098;2022-09-17T14:08:29;100619.75;;;19.67;56.80
21109;BME280;10712;52.944;9.098;2022-09-17T14:10:58;100622.06;;;19.62;56.98
21109;BME280;10712;52.944;9.098;2022-09-17T14:13:48;100627.47;;;19.62;57.44
21109;BME280;10712;52.944;9.098;2022-09-17T14:21:45;100618.94;;;19.57;58.04
21109;BME280;10712;52.944;9.098;2022-09-17T14:30:17;100628.00;;;20.11;56.81
21109;BME280;10712;52.944;9.098;2022-09-17T14:35:36;100632.88;;;19.62;58.66
21109;BME280;10712;52.944;9.098;2022-09-17T14:38:25;100636.06;;;19.39;59.32
21109;BME280;10712;52.944;9.098;2022-09-17T14:41:20;100633.34;;;19.39;59.42
21109;BME280;10712;52.944;9.098;2022-09-17T14:46:38;100639.25;;;19.24;59.52
21109;BME280;10712;52.944;9.098;2022-09-17T14:49:27;100627.16;;;18.72;61.49
21109;BME280;10712;52.944;9.098;2022-09-17T14:51:56;100647.03;;;18.71;61.28
21109;BME280;10712;52.944;9.098;2022-09-17T14:54:26;100645.50;;;19.25;59.20
21109;BME280;10712;52.944;9.098;2022-09-17T14:59:47;100654.94;;;19.02;59.79
21109;BME280;10712;52.944;9.098;2022-09-17T15:02:38;100646.97;;;19.10;59.88
21109;BME280;10712;52.944;9.098;2022-09-17T15:07:44;100647.03;;;18.52;61.27
21109;BME280;10712;52.944;9.098;2022-09-17T15:10:19;100643.88;;;18.95;60.22
21109;BME280;10712;52.944;9.098;2022-09-17T15:12:47;100658.13;;;18.78;60.66
21109;BME280;10712;52.944;9.098;2022-09-17T15:15:24;100653.69;;;18.48;61.28
21109;BME280;10712;52.944;9.098;2022-09-17T15:17:52;100649.00;;;18.88;60.35
21109;BME280;10712;52.944;9.098;2022-09-17T15:20:28;100651.81;;;18.97;60.16
21109;BME280;10712;52.944;9.098;2022-09-17T15:23:07;100656.09;;;19.36;58.82
21109;BME280;10712;52.944;9.098;2022-09-17T15:25:36;100665.97;;;19.18;59.52
21109;BME280;10712;52.944;9.098;2022-09-17T15:28:35;100642.28;;;19.12;59.76
21109;BME280;10712;52.944;9.098;2022-09-17T15:31:05;100642.41;;;19.10;59.74
21109;BME280;10712;52.944;9.098;2022-09-17T15:33:38;100651.81;;;18.97;60.57
21109;BME280;10712;52.944;9.098;2022-09-17T15:36:20;100642.41;;;19.10;60.30
21109;BME280;10712;52.944;9.098;2022-09-17T15:38:47;100644.78;;;19.23;59.84
21109;BME280;10712;52.944;9.098;2022-09-17T15:44:17;100645.56;;;19.06;60.55
21109;BME280;10712;52.944;9.098;2022-09-17T15:46:45;100649.44;;;18.94;61.13
21109;BME280;10712;52.944;9.098;2022-09-17T15:49:35;100645.16;;;19.01;60.56
21109;BME280;10712;52.944;9.098;2022-09-17T15:52:27;100642.09;;;19.23;60.07
21109;BME280;10712;52.944;9.098;2022-09-17T15:54:57;100646.94;;;19.19;60.45
21109;BME280;10712;52.944;9.098;2022-09-17T15:57:24;100651.25;;;19.03;61.05
21109;BME280;10712;52.944;9.098;2022-09-17T15:59:51;100653.72;;;19.23;60.49
21109;BME280;10712;52.944;9.098;2022-09-17T16:02:28;100656.97;;;18.61;62.09
21109;BME280;10712;52.944;9.098;2022-09-17T16:07:52;100673.16;;;19.00;60.88
21109;BME280;10712;52.944;9.098;2022-09-17T16:10:18;100662.22;;;18.92;61.51
21109;BME280;10712;52.944;9.098;2022-09-17T16:12:44;100668.94;;;18.59;62.25
21109;BME280;10712;52.944;9.098;2022-09-17T16:15:13;100677.41;;;18.83;61.54
21109;BME280;10712;52.944;9.098;2022-09-17T16:17:45;100686.91;;;19.06;60.90
21109;BME280;10712;52.944;9.098;2022-09-17T16:20:20;100684.34;;;18.47;62.53
21109;BME280;10712;52.944;9.098;2022-09-17T16:22:49;100687.91;;;18.38;63.03
21109;BME280;10712;52.944;9.098;2022-09-17T16:25:26;100680.09;;;19.02;60.83
21109;BME280;10712;52.944;9.098;2022-09-17T16:28:01;100684.75;;;19.19;60.18